createdAt,value
2019-05-15T00:02:18.356Z,8.8
2019-05-15T00:07:23.398Z,8.9
2019-05-15T00:12:30.358Z,8.9
2019-05-15T00:17:35.220Z,8.9
2019-05-15T00:22:41.063Z,8.9
2019-05-15T00:27:48.925Z,8.9
2019-05-15T00:32:54.556Z,8.9
2019-05-15T00:38:00.336Z,8.9
2019-05-15T00:43:05.757Z,8.9
2019-05-15T00:48:13.037Z,8.9
2019-05-15T00:53:21.356Z,9
2019-05-15T00:58:29.320Z,8.9
2019-05-15T01:03:34.296Z,9
2019-05-15T01:08:41.268Z,9
2019-05-15T01:13:49.094Z,9
2019-05-15T01:18:54.163Z,9
2019-05-15T01:24:00.785Z,9
2019-05-15T01:29:06.038Z,9
2019-05-15T01:34:13.396Z,9
2019-05-15T01:39:20.376Z,8.9
2019-05-15T01:44:25.872Z,8.9
2019-05-15T01:49:33.085Z,8.9
2019-05-15T01:54:40.324Z,8.9
2019-05-15T02:00:01.926Z,8.9
2019-05-15T02:04:49.811Z,9
2019-05-15T02:09:54.956Z,9
2019-05-15T02:15:00.627Z,9
2019-05-15T02:20:08.131Z,8.9
2019-05-15T02:25:13.556Z,9
2019-05-15T02:30:35.029Z,9
2019-05-15T02:35:24.517Z,9
2019-05-15T02:40:31.329Z,9
2019-05-15T02:45:43.726Z,9
2019-05-15T02:50:41.097Z,9
2019-05-15T02:55:49.160Z,9
2019-05-15T03:00:58.887Z,9
2019-05-15T03:05:54.777Z,9
2019-05-15T03:11:01.148Z,9
2019-05-15T03:16:09.986Z,9.1
2019-05-15T03:21:15.243Z,9.1
2019-05-15T03:26:15.908Z,9.1
2019-05-15T03:32:22.722Z,9.2
2019-05-15T03:36:33.551Z,9.2
2019-05-15T03:41:31.685Z,9.2
2019-05-15T03:51:49.960Z,9.3
2019-05-15T03:56:49.000Z,9.3
2019-05-15T04:01:55.088Z,9.3
2019-05-15T04:07:01.450Z,9.3
2019-05-15T04:12:10.403Z,9.4
2019-05-15T04:17:15.395Z,9.4
2019-05-15T04:22:24.233Z,9.4
2019-05-15T04:27:30.964Z,9.6
2019-05-15T04:32:39.505Z,9.6
2019-05-15T04:37:44.981Z,9.8
2019-05-15T04:42:53.702Z,9.9
2019-05-15T04:48:00.609Z,9.9
2019-05-15T04:53:05.777Z,9.9
2019-05-15T04:58:14.852Z,9.9
2019-05-15T05:03:14.869Z,9.9
2019-05-15T05:08:22.370Z,10
2019-05-15T05:13:30.435Z,10
2019-05-15T05:18:40.386Z,10
2019-05-15T05:28:39.884Z,10.1
2019-05-15T05:33:44.714Z,10.1
2019-05-15T05:38:51.258Z,10.2
2019-05-15T05:43:58.318Z,10.2
2019-05-15T05:49:03.778Z,10.2
2019-05-15T05:54:10.285Z,10.3
2019-05-15T05:59:15.281Z,10.3
2019-05-15T06:04:22.734Z,10.4
2019-05-15T06:09:29.605Z,10.6
2019-05-15T06:14:37.870Z,10.7
2019-05-15T06:19:43.148Z,10.7
2019-05-15T06:24:50.344Z,10.7
2019-05-15T06:29:55.149Z,10.7
2019-05-15T06:35:02.334Z,10.6
2019-05-15T06:40:09.596Z,10.5
2019-05-15T06:45:14.761Z,10.5
2019-05-15T06:50:22.283Z,10.5
2019-05-15T06:55:29.918Z,10.4
2019-05-15T07:00:40.193Z,10.4
2019-05-15T07:05:35.236Z,10.5
2019-05-15T07:10:42.580Z,10.4
2019-05-15T07:15:50.539Z,10.5
2019-05-15T07:20:57.907Z,10.5
2019-05-15T07:26:03.212Z,10.7
2019-05-15T07:31:13.323Z,11.1
2019-05-15T07:36:10.352Z,11.2
2019-05-15T07:41:15.168Z,11.3
2019-05-15T07:46:22.695Z,11.5
2019-05-15T07:51:30.595Z,11.9
2019-05-15T07:56:37.939Z,11.8
2019-05-15T08:01:43.207Z,12
2019-05-15T08:06:50.776Z,11.8
2019-05-15T08:11:55.881Z,11.8
2019-05-15T08:17:08.626Z,11.8
2019-05-15T08:22:19.234Z,11.8
2019-05-15T08:27:14.320Z,11.8
2019-05-15T08:32:21.045Z,11.9
2019-05-15T08:37:28.719Z,11.9
2019-05-15T08:42:34.133Z,12
2019-05-15T08:47:40.623Z,11.9
2019-05-15T08:52:45.604Z,11.9
2019-05-15T08:58:13.208Z,11.8
2019-05-15T09:03:00.069Z,12
2019-05-15T09:08:09.249Z,12
2019-05-15T09:13:14.689Z,12.1
2019-05-15T09:18:22.197Z,12
2019-05-15T09:23:30.072Z,11.9
2019-05-15T09:28:35.184Z,11.9
2019-05-15T09:33:43.223Z,11.8
2019-05-15T09:38:50.793Z,11.7
2019-05-15T09:43:57.743Z,11.7
2019-05-15T09:49:03.045Z,11.7
2019-05-15T09:54:10.109Z,11.9
2019-05-15T09:59:15.163Z,11.8
2019-05-15T10:04:22.994Z,11.8
2019-05-15T10:09:30.373Z,11.6
2019-05-15T10:14:35.432Z,11.6
2019-05-15T10:19:42.972Z,11.4
2019-05-15T10:24:52.713Z,11.7
2019-05-15T10:30:00.621Z,11.9
2019-05-15T10:35:28.571Z,11.6
2019-05-15T10:40:10.215Z,11.4
2019-05-15T10:45:15.132Z,11.4
2019-05-15T10:50:21.065Z,11.3
2019-05-15T10:55:28.422Z,11.3
2019-05-15T11:00:34.186Z,11.1
2019-05-15T11:05:49.087Z,11.2
2019-05-15T11:10:44.242Z,11.2
2019-05-15T11:15:51.098Z,11.6
2019-05-15T11:20:58.461Z,11.6
2019-05-15T11:26:04.492Z,12
2019-05-15T11:31:12.269Z,13.1
2019-05-15T11:36:20.242Z,13.6
2019-05-15T11:41:25.293Z,13.6
2019-05-15T11:46:33.748Z,13.4
2019-05-15T11:51:40.241Z,12.4
2019-05-15T11:56:45.276Z,12.4
2019-05-15T12:01:53.116Z,12.3
2019-05-15T12:07:04.532Z,13.1
2019-05-15T12:12:10.689Z,14.1
2019-05-15T12:17:19.874Z,14.7
2019-05-15T12:22:25.090Z,14.7
2019-05-15T12:27:33.090Z,14.8
2019-05-15T12:32:42.112Z,14
2019-05-15T12:37:49.929Z,13.9
2019-05-15T13:03:17.769Z,13.4
2019-05-15T13:08:24.692Z,13.5
2019-05-15T13:13:30.248Z,13.5
2019-05-15T13:18:35.190Z,13.5
2019-05-15T13:23:40.693Z,13.6
2019-05-15T13:28:48.618Z,13.6
2019-05-15T13:33:53.892Z,13.4
2019-05-15T13:38:59.711Z,12.7
2019-05-15T13:44:04.834Z,12.7
2019-05-15T13:49:10.090Z,12.4
2019-05-15T13:54:14.844Z,12.4
2019-05-15T13:59:19.939Z,12
2019-05-15T14:04:24.912Z,11.8
2019-05-15T14:09:43.388Z,11.6
2019-05-15T14:14:40.380Z,11.5
2019-05-15T14:19:45.317Z,11.5
2019-05-15T14:24:55.604Z,11.4
2019-05-15T14:30:03.135Z,11.5
2019-05-15T14:35:10.967Z,11.7
2019-05-15T14:40:18.796Z,11.5
2019-05-15T14:45:24.525Z,11.3
2019-05-15T14:50:30.276Z,11.3
2019-05-15T14:55:43.004Z,11.5
2019-05-15T15:00:44.245Z,12
2019-05-15T15:05:40.790Z,12.5
2019-05-15T15:10:47.000Z,12.6
2019-05-15T15:15:52.020Z,12.6
2019-05-15T15:20:59.957Z,12.7
2019-05-15T15:26:05.085Z,12.7
2019-05-15T15:31:14.764Z,12.7
2019-05-15T15:36:23.565Z,12.8
2019-05-15T15:41:30.536Z,12.1
2019-05-15T15:46:35.432Z,12.1
2019-05-15T15:51:43.817Z,11.8
2019-05-15T15:56:50.433Z,11.9
2019-05-15T16:01:55.694Z,11.9
2019-05-15T16:07:03.220Z,12.1
2019-05-15T16:12:11.400Z,12.1
2019-05-15T16:17:19.104Z,12
2019-05-15T16:22:24.668Z,11.9
2019-05-15T16:27:30.600Z,11.8
2019-05-15T16:32:30.642Z,11.8
2019-05-15T16:37:40.507Z,11.9
2019-05-15T16:42:45.651Z,11.9
2019-05-15T16:47:54.251Z,12.1
2019-05-15T16:53:00.268Z,11.9
2019-05-15T16:58:05.939Z,11.8
2019-05-15T17:03:20.479Z,11.7
2019-05-15T17:08:17.727Z,11.7
2019-05-15T17:13:22.845Z,11.8
2019-05-15T17:18:27.919Z,11.6
2019-05-15T17:23:33.134Z,11.5
2019-05-15T17:28:40.273Z,11.3
2019-05-15T17:33:45.397Z,11.3
2019-05-15T17:38:53.430Z,11.2
2019-05-15T17:43:59.800Z,11.1
2019-05-15T17:49:16.594Z,11
2019-05-15T17:54:11.851Z,11
2019-05-15T17:59:19.488Z,10.9
2019-05-15T18:04:24.529Z,10.9
2019-05-15T18:09:29.688Z,10.9
2019-05-15T18:14:40.098Z,10.7
2019-05-15T18:19:45.040Z,10.7
2019-05-15T18:24:50.496Z,10.6
2019-05-15T18:30:01.003Z,10.6
2019-05-15T18:35:00.879Z,10.6
2019-05-15T18:40:11.132Z,10.6
2019-05-15T18:45:06.524Z,10.5
2019-05-15T18:50:15.189Z,10.6
2019-05-15T18:55:20.373Z,10.5
2019-05-15T19:00:31.298Z,10.5
2019-05-15T19:05:29.040Z,10.4
2019-05-15T19:10:34.339Z,10.4
2019-05-15T19:15:39.899Z,10.3
2019-05-15T19:20:45.067Z,10.3
2019-05-15T19:25:54.046Z,10.3
2019-05-15T19:31:00.605Z,10.3
2019-05-15T19:36:08.753Z,10.3
2019-05-15T19:41:14.401Z,10.2
2019-05-15T19:46:19.696Z,10.2
2019-05-15T19:51:29.924Z,10.1
2019-05-15T19:56:35.156Z,10.1
2019-05-15T20:01:40.205Z,10.1
2019-05-15T20:06:45.452Z,10.1
2019-05-15T20:11:51.133Z,10.1
2019-05-15T20:16:55.388Z,10
2019-05-15T20:22:03.345Z,10
2019-05-15T20:27:09.542Z,10.1
2019-05-15T20:32:14.434Z,10.1
2019-05-15T20:37:19.859Z,10.1
2019-05-15T20:42:23.916Z,10
2019-05-15T20:47:29.931Z,10
2019-05-15T20:52:33.698Z,10
2019-05-15T20:57:42.549Z,9.9
2019-05-15T21:02:50.502Z,9.9
2019-05-15T21:07:55.909Z,9.9
2019-05-15T21:13:01.169Z,9.9
2019-05-15T21:18:20.663Z,9.8
2019-05-15T21:23:11.004Z,9.7
2019-05-15T21:28:15.924Z,9.7
2019-05-15T21:33:21.940Z,9.6
2019-05-15T21:38:30.025Z,9.6
2019-05-15T21:43:35.191Z,9.6
2019-05-15T21:48:40.437Z,9.5
2019-05-15T21:53:47.383Z,9.6
2019-05-15T21:58:53.417Z,9.5
2019-05-15T22:04:00.825Z,9.5
2019-05-15T22:09:08.724Z,9.5
2019-05-15T22:14:13.658Z,9.5
2019-05-15T22:19:21.863Z,9.5
2019-05-15T22:24:29.520Z,9.4
2019-05-15T22:29:34.564Z,9.4
2019-05-15T22:34:42.478Z,9.4
2019-05-15T22:39:47.643Z,9.4
2019-05-15T22:44:52.599Z,9.3
2019-05-15T22:50:01.070Z,9.2
2019-05-15T22:55:06.143Z,9.2
2019-05-15T23:00:11.460Z,9.2
2019-05-15T23:05:32.785Z,9
2019-05-15T23:10:18.046Z,9
2019-05-15T23:15:23.715Z,8.8
2019-05-15T23:20:30.344Z,8.7
2019-05-15T23:25:35.313Z,8.7
2019-05-15T23:30:42.586Z,8.6
2019-05-15T23:35:50.218Z,8.4
2019-05-15T23:40:55.502Z,8.4
2019-05-15T23:46:03.183Z,8.3
2019-05-15T23:51:10.366Z,8.1
2019-05-15T23:56:15.445Z,8.1
